Time;durP1;ratioP1;P1;durP2;ratioP2;P2;SDS_P1;SDS_P2;PMS_P1;PMS_P2;Temp;Humidity;BMP_temperature;BMP_pressure;BME280_temperature;BME280_humidity;BME280_pressure;Samples;Min_cycle;Max_cycle;Signal;HPM_P1;HPM_P2
2023/06/21 00:01:04;;;;;;;1.95;1.85;;;;;;;;;;5044650;28;20053;-62
2023/06/21 00:03:30;;;;;;;2.05;1.95;;;;;;;;;;5043362;28;20126;-62
2023/06/21 00:05:56;;;;;;;1.33;1.23;;;;;;;;;;5043988;28;20152;-62
2023/06/21 00:08:22;;;;;;;1.80;1.70;;;;;;;;;;5044332;28;20045;-62
2023/06/21 00:10:49;;;;;;;1.25;1.25;;;;;;;;;;5044432;28;20053;-62
2023/06/21 00:13:15;;;;;;;1.15;1.15;;;;;;;;;;5043499;28;20041;-62
2023/06/21 00:15:41;;;;;;;1.63;1.52;;;;;;;;;;5044865;28;20079;-62
2023/06/21 00:18:07;;;;;;;1.40;1.30;;;;;;;;;;5044451;28;20565;-62
2023/06/21 00:20:33;;;;;;;1.50;1.40;;;;;;;;;;5043974;28;20044;-62
2023/06/21 00:22:59;;;;;;;2.00;1.85;;;;;;;;;;5044376;28;20045;-62
2023/06/21 00:25:25;;;;;;;1.02;1.02;;;;;;;;;;5043831;28;20037;-62
2023/06/21 00:27:51;;;;;;;1.13;1.13;;;;;;;;;;5043923;28;20244;-62
2023/06/21 00:30:17;;;;;;;1.42;1.33;;;;;;;;;;5043880;28;20063;-63
2023/06/21 00:32:43;;;;;;;1.08;1.00;;;;;;;;;;5044139;28;20060;-63
2023/06/21 00:35:10;;;;;;;1.13;1.08;;;;;;;;;;5043755;28;20479;-62
2023/06/21 00:37:37;;;;;;;1.13;1.13;;;;;;;;;;5044158;28;20508;-62
2023/06/21 00:40:04;;;;;;;1.00;1.00;;;;;;;;;;5044226;28;20102;-62
2023/06/21 00:42:30;;;;;;;1.00;1.00;;;;;;;;;;5025136;28;20713;-62
2023/06/21 00:44:56;;;;;;;1.70;1.60;;;;;;;;;;5043825;28;20230;-63
2023/06/21 00:47:22;;;;;;;1.23;1.13;;;;;;;;;;5043485;28;20084;-63
2023/06/21 00:49:48;;;;;;;1.10;1.10;;;;;;;;;;5043170;28;20578;-63
2023/06/21 00:52:14;;;;;;;1.40;1.30;;;;;;;;;;5043477;28;20120;-63
2023/06/21 00:54:41;;;;;;;1.73;1.63;;;;;;;;;;5044243;28;20045;-63
2023/06/21 00:57:07;;;;;;;1.30;1.20;;;;;;;;;;5043372;28;20052;-63
2023/06/21 00:59:33;;;;;;;1.65;1.55;;;;;;;;;;5043667;28;20124;-63
2023/06/21 01:02:00;;;;;;;1.60;1.50;;;;;;;;;;5043153;28;20123;-62
2023/06/21 01:04:28;;;;;;;1.60;1.50;;;;;;;;;;5043546;28;20910;-62
2023/06/21 01:07:06;;;;;;;1.50;1.40;;;;;;;;;;5043592;28;20481;-62
2023/06/21 01:09:32;;;;;;;1.25;1.15;;;;;;;;;;5043232;28;20447;-63
2023/06/21 01:12:04;;;;;;;1.42;1.33;;;;;;;;;;5043533;28;20061;-63
2023/06/21 01:14:51;;;;;;;1.42;1.33;;;;;;;;;;5042974;28;20045;-63
2023/06/21 01:17:18;;;;;;;1.40;1.30;;;;;;;;;;5042424;28;20552;-63
2023/06/21 01:19:48;;;;;;;1.70;1.60;;;;;;;;;;5043221;28;20178;-62
2023/06/21 01:22:23;;;;;;;1.95;1.83;;;;;;;;;;5042909;28;20090;-62
2023/06/21 01:24:50;;;;;;;1.80;1.70;;;;;;;;;;5042442;28;20075;-62
2023/06/21 01:27:30;;;;;;;2.30;2.20;;;;;;;;;;5043098;28;20045;-62
2023/06/21 01:29:59;;;;;;;3.25;2.95;;;;;;;;;;5043410;28;20056;-63
2023/06/21 01:32:28;;;;;;;2.60;2.40;;;;;;;;;;5043338;28;20037;-63
2023/06/21 01:34:55;;;;;;;2.15;2.05;;;;;;;;;;5043136;28;20044;-62
2023/06/21 01:37:22;;;;;;;2.50;2.28;;;;;;;;;;5042073;28;20150;-62
2023/06/21 01:39:48;;;;;;;3.25;2.95;;;;;;;;;;5043129;28;20097;-62
2023/06/21 01:42:14;;;;;;;2.85;2.65;;;;;;;;;;5042870;28;20150;-62
2023/06/21 01:44:40;;;;;;;2.65;2.45;;;;;;;;;;5042948;28;20045;-63
2023/06/21 01:47:07;;;;;;;2.35;2.15;;;;;;;;;;5043085;28;20044;-63
2023/06/21 01:49:34;;;;;;;3.03;2.83;;;;;;;;;;5042923;28;20041;-63
2023/06/21 01:52:04;;;;;;;1.73;1.63;;;;;;;;;;5042754;28;20374;-63
2023/06/21 01:54:30;;;;;;;2.20;2.10;;;;;;;;;;5043034;28;20126;-62
2023/06/21 01:56:59;;;;;;;2.10;2.00;;;;;;;;;;5043190;28;20037;-62
2023/06/21 01:59:25;;;;;;;1.85;1.75;;;;;;;;;;5042288;28;20052;-62
2023/06/21 02:01:52;;;;;;;2.60;2.40;;;;;;;;;;5043123;28;20037;-62
2023/06/21 02:04:19;;;;;;;1.98;1.88;;;;;;;;;;5043605;28;20496;-63
2023/06/21 02:06:46;;;;;;;2.30;2.10;;;;;;;;;;5043651;28;20124;-62
2023/06/21 02:09:12;;;;;;;2.35;2.15;;;;;;;;;;5044333;28;20524;-62
2023/06/21 02:11:38;;;;;;;1.63;1.52;;;;;;;;;;5044464;28;20068;-63
2023/06/21 02:14:05;;;;;;;1.40;1.30;;;;;;;;;;5043646;28;20090;-63
2023/06/21 02:16:34;;;;;;;1.90;1.80;;;;;;;;;;5043875;28;20283;-63
2023/06/21 02:19:00;;;;;;;2.70;2.50;;;;;;;;;;5043499;28;20045;-63
2023/06/21 02:21:26;;;;;;;1.88;1.77;;;;;;;;;;5041466;28;20407;-62
2023/06/21 02:23:53;;;;;;;1.85;1.73;;;;;;;;;;5042650;28;20144;-62
2023/06/21 02:26:19;;;;;;;1.95;1.85;;;;;;;;;;5041783;28;20135;-62
2023/06/21 02:28:46;;;;;;;2.80;2.60;;;;;;;;;;5046571;28;20092;-63
2023/06/21 02:31:11;;;;;;;2.20;2.10;;;;;;;;;;5046601;28;20041;-62
2023/06/21 02:33:39;;;;;;;3.28;3.08;;;;;;;;;;5046066;28;20048;-62
2023/06/21 02:36:05;;;;;;;2.97;2.28;;;;;;;;;;5046511;28;20080;-62
2023/06/21 02:38:31;;;;;;;3.42;3.13;;;;;;;;;;5046126;28;20484;-62
2023/06/21 02:40:57;;;;;;;2.70;2.50;;;;;;;;;;5045610;28;20052;-62
2023/06/21 02:43:23;;;;;;;2.30;2.15;;;;;;;;;;5045914;28;20037;-62
2023/06/21 02:45:50;;;;;;;3.03;2.63;;;;;;;;;;5045981;28;20040;-62
2023/06/21 02:48:16;;;;;;;3.22;2.92;;;;;;;;;;5045279;28;20037;-62
2023/06/21 02:50:42;;;;;;;2.55;2.35;;;;;;;;;;5046551;28;20037;-62
2023/06/21 02:53:08;;;;;;;2.35;2.15;;;;;;;;;;5046515;28;20041;-62
2023/06/21 02:55:34;;;;;;;2.13;2.03;;;;;;;;;;5045452;28;20094;-62
2023/06/21 02:58:00;;;;;;;2.10;2.00;;;;;;;;;;5045889;28;20033;-62
2023/06/21 03:00:29;;;;;;;2.45;2.25;;;;;;;;;;5045367;28;20642;-62
2023/06/21 03:03:02;;;;;;;2.25;2.08;;;;;;;;;;5045249;28;20048;-62
2023/06/21 03:05:29;;;;;;;5.10;4.70;;;;;;;;;;5045713;28;20048;-62
2023/06/21 03:07:55;;;;;;;4.32;4.00;;;;;;;;;;5044467;28;20455;-62
2023/06/21 03:10:21;;;;;;;4.25;3.70;;;;;;;;;;5044567;28;20060;-62
2023/06/21 03:12:47;;;;;;;4.10;3.80;;;;;;;;;;5045810;28;20041;-62
2023/06/21 03:15:13;;;;;;;5.10;4.60;;;;;;;;;;5045345;28;20056;-62
2023/06/21 03:17:40;;;;;;;3.22;3.03;;;;;;;;;;5045398;28;20412;-62
2023/06/21 03:20:12;;;;;;;5.10;4.63;;;;;;;;;;5045533;28;20048;-62
2023/06/21 03:22:38;;;;;;;3.50;3.30;;;;;;;;;;5045467;28;20051;-62
2023/06/21 03:25:04;;;;;;;3.13;2.92;;;;;;;;;;5045646;28;20219;-62
2023/06/21 03:27:30;;;;;;;3.10;2.90;;;;;;;;;;5045551;28;20049;-62
2023/06/21 03:29:57;;;;;;;2.78;2.58;;;;;;;;;;5044767;28;20059;-62
2023/06/21 03:32:23;;;;;;;3.33;3.03;;;;;;;;;;5045073;28;20142;-62
2023/06/21 03:34:49;;;;;;;2.85;2.65;;;;;;;;;;5045193;28;20141;-63
2023/06/21 03:37:15;;;;;;;3.13;2.92;;;;;;;;;;5044288;28;20540;-63
2023/06/21 03:39:41;;;;;;;3.03;2.83;;;;;;;;;;5044326;28;20049;-63
2023/06/21 03:42:07;;;;;;;3.65;3.35;;;;;;;;;;5044850;28;20126;-63
2023/06/21 03:44:33;;;;;;;3.67;3.47;;;;;;;;;;5044702;28;20049;-62
2023/06/21 03:46:59;;;;;;;3.35;3.15;;;;;;;;;;5045343;28;20102;-62
2023/06/21 03:49:25;;;;;;;4.13;3.83;;;;;;;;;;5044675;28;20036;-62
2023/06/21 03:51:51;;;;;;;3.92;3.58;;;;;;;;;;5044129;28;20045;-62
2023/06/21 03:54:17;;;;;;;3.30;3.10;;;;;;;;;;5044970;28;20133;-62
2023/06/21 03:56:43;;;;;;;4.38;4.07;;;;;;;;;;5044569;28;20045;-62
2023/06/21 03:59:09;;;;;;;5.32;4.93;;;;;;;;;;5044388;28;20051;-62
2023/06/21 04:01:35;;;;;;;5.78;5.28;;;;;;;;;;5045019;28;20091;-62
2023/06/21 04:04:01;;;;;;;7.07;6.47;;;;;;;;;;5044669;28;20048;-62
2023/06/21 04:06:27;;;;;;;6.03;5.50;;;;;;;;;;5043702;28;20043;-62
2023/06/21 04:08:53;;;;;;;11.38;10.27;;;;;;;;;;5044478;28;20497;-62
2023/06/21 04:11:19;;;;;;;8.25;7.50;;;;;;;;;;5044365;28;20057;-62
2023/06/21 04:13:45;;;;;;;5.75;5.35;;;;;;;;;;5044013;28;20056;-62
2023/06/21 04:16:11;;;;;;;5.47;4.97;;;;;;;;;;5044951;28;20051;-62
2023/06/21 04:18:37;;;;;;;10.65;9.75;;;;;;;;;;5044652;28;20071;-62
2023/06/21 04:21:03;;;;;;;10.00;9.10;;;;;;;;;;5043732;28;20036;-62
2023/06/21 04:23:29;;;;;;;8.45;7.68;;;;;;;;;;5044007;28;20047;-62
2023/06/21 04:25:56;;;;;;;6.10;5.55;;;;;;;;;;5043625;28;20045;-62
2023/06/21 04:28:25;;;;;;;11.00;10.00;;;;;;;;;;5044265;28;20051;-62
2023/06/21 04:30:58;;;;;;;7.07;6.38;;;;;;;;;;5044331;28;20045;-63
2023/06/21 04:33:24;;;;;;;7.60;6.95;;;;;;;;;;5043288;28;20045;-63
2023/06/21 04:35:50;;;;;;;7.22;6.63;;;;;;;;;;5044149;28;20044;-62
2023/06/21 04:38:16;;;;;;;6.05;5.60;;;;;;;;;;5043717;28;20575;-62
2023/06/21 04:40:43;;;;;;;7.68;7.07;;;;;;;;;;5043859;28;20124;-62
2023/06/21 04:43:09;;;;;;;7.57;6.88;;;;;;;;;;5044674;28;20531;-62
2023/06/21 04:45:35;;;;;;;9.07;8.27;;;;;;;;;;5043968;28;20041;-62
2023/06/21 04:48:03;;;;;;;6.50;5.90;;;;;;;;;;5042955;28;20160;-63
2023/06/21 04:50:30;;;;;;;10.02;9.00;;;;;;;;;;5043521;28;20413;-62
2023/06/21 04:52:59;;;;;;;6.97;6.38;;;;;;;;;;5044117;28;20044;-62
2023/06/21 04:55:25;;;;;;;5.20;4.80;;;;;;;;;;5043180;28;20045;-62
2023/06/21 04:57:51;;;;;;;4.43;4.13;;;;;;;;;;5043883;28;20037;-62
2023/06/21 05:00:18;;;;;;;5.15;4.72;;;;;;;;;;5043337;28;20500;-62
2023/06/21 05:02:44;;;;;;;4.00;3.70;;;;;;;;;;5042999;28;20657;-62
2023/06/21 05:05:10;;;;;;;3.10;2.90;;;;;;;;;;5044194;28;20053;-62
2023/06/21 05:07:37;;;;;;;3.45;3.15;;;;;;;;;;5043387;28;20051;-62
2023/06/21 05:10:07;;;;;;;3.30;3.00;;;;;;;;;;5042816;28;20045;-62
2023/06/21 05:12:34;;;;;;;3.65;3.35;;;;;;;;;;5043747;28;20053;-62
2023/06/21 05:15:00;;;;;;;2.72;2.53;;;;;;;;;;5043847;28;20056;-62
2023/06/21 05:17:26;;;;;;;2.25;2.15;;;;;;;;;;5043037;28;20048;-62
2023/06/21 05:19:52;;;;;;;2.97;2.67;;;;;;;;;;5043633;28;20041;-64
2023/06/21 05:22:18;;;;;;;3.30;3.00;;;;;;;;;;5042307;28;20052;-63
2023/06/21 05:24:44;;;;;;;3.95;3.65;;;;;;;;;;5043266;28;20040;-63
2023/06/21 05:27:10;;;;;;;3.97;3.10;;;;;;;;;;5043358;28;20114;-63
2023/06/21 05:29:36;;;;;;;3.58;3.17;;;;;;;;;;5042617;28;20521;-63
2023/06/21 05:32:02;;;;;;;4.40;4.00;;;;;;;;;;5043078;28;20079;-63
2023/06/21 05:34:30;;;;;;;3.90;3.60;;;;;;;;;;5043117;28;20060;-63
2023/06/21 05:36:56;;;;;;;3.55;2.90;;;;;;;;;;5042375;28;20448;-63
2023/06/21 05:39:23;;;;;;;5.30;4.68;;;;;;;;;;5042958;28;20044;-63
2023/06/21 05:41:49;;;;;;;4.00;3.60;;;;;;;;;;5043234;28;20493;-63
2023/06/21 05:44:15;;;;;;;7.90;6.43;;;;;;;;;;5042583;28;20080;-63
2023/06/21 05:46:41;;;;;;;4.45;4.05;;;;;;;;;;5043432;28;20079;-60
2023/06/21 05:49:07;;;;;;;3.95;3.33;;;;;;;;;;5042753;28;20076;-60
2023/06/21 05:51:33;;;;;;;2.20;2.00;;;;;;;;;;5042341;28;20414;-61
2023/06/21 05:53:59;;;;;;;4.78;4.38;;;;;;;;;;5043120;28;20098;-61
2023/06/21 05:56:26;;;;;;;4.75;3.85;;;;;;;;;;5042665;28;20101;-61
2023/06/21 05:58:53;;;;;;;5.63;4.18;;;;;;;;;;5042220;28;20048;-61
2023/06/21 06:01:19;;;;;;;6.30;5.18;;;;;;;;;;5042600;28;20055;-61
2023/06/21 06:03:45;;;;;;;4.70;3.85;;;;;;;;;;5047319;28;20415;-60
2023/06/21 06:06:14;;;;;;;6.05;3.90;;;;;;;;;;5046744;28;20051;-61
2023/06/21 06:08:40;;;;;;;3.92;3.30;;;;;;;;;;5047397;28;20076;-61
2023/06/21 06:11:06;;;;;;;2.95;2.75;;;;;;;;;;5046710;28;20049;-61
2023/06/21 06:13:32;;;;;;;5.72;5.20;;;;;;;;;;5046241;28;20055;-61
2023/06/21 06:15:58;;;;;;;4.28;3.20;;;;;;;;;;5047145;28;20040;-61
2023/06/21 06:18:24;;;;;;;2.95;2.67;;;;;;;;;;5045457;28;20041;-61
2023/06/21 06:20:50;;;;;;;4.07;3.17;;;;;;;;;;5046589;28;20068;-61
2023/06/21 06:23:16;;;;;;;5.22;4.75;;;;;;;;;;5046680;28;20068;-61
2023/06/21 06:25:42;;;;;;;3.03;2.58;;;;;;;;;;5046718;28;20495;-61
2023/06/21 06:28:08;;;;;;;2.60;2.42;;;;;;;;;;5046725;28;20086;-61
2023/06/21 06:30:34;;;;;;;4.68;3.95;;;;;;;;;;5046376;28;20167;-61
2023/06/21 06:33:00;;;;;;;7.13;5.82;;;;;;;;;;5045508;28;20041;-61
2023/06/21 06:35:27;;;;;;;4.93;4.43;;;;;;;;;;5046399;28;20664;-61
2023/06/21 06:37:53;;;;;;;4.50;4.10;;;;;;;;;;5046691;28;20040;-61
2023/06/21 06:40:19;;;;;;;9.70;6.50;;;;;;;;;;5045526;28;20405;-61
2023/06/21 06:42:45;;;;;;;3.90;3.60;;;;;;;;;;5046376;28;20485;-61
2023/06/21 06:45:11;;;;;;;4.53;4.13;;;;;;;;;;5046418;28;20045;-61
2023/06/21 06:47:37;;;;;;;4.38;3.97;;;;;;;;;;5045465;28;20694;-61
2023/06/21 06:50:04;;;;;;;4.13;3.80;;;;;;;;;;5046197;28;20093;-61
2023/06/21 06:52:30;;;;;;;2.97;2.47;;;;;;;;;;5046357;28;20485;-61
2023/06/21 06:54:56;;;;;;;3.80;3.50;;;;;;;;;;5045669;28;20033;-61
2023/06/21 06:57:23;;;;;;;2.92;2.72;;;;;;;;;;5045946;28;20041;-61
2023/06/21 06:59:49;;;;;;;3.15;2.83;;;;;;;;;;5045751;28;20562;-61
2023/06/21 07:02:15;;;;;;;2.85;2.65;;;;;;;;;;5045175;28;20045;-61
2023/06/21 07:04:41;;;;;;;3.80;3.45;;;;;;;;;;5046559;28;20060;-61
2023/06/21 07:07:07;;;;;;;7.63;6.90;;;;;;;;;;5045618;28;20044;-61
2023/06/21 07:09:34;;;;;;;4.50;4.15;;;;;;;;;;5044910;28;20128;-61
2023/06/21 07:12:01;;;;;;;4.65;4.25;;;;;;;;;;5045648;28;20068;-61
2023/06/21 07:14:28;;;;;;;3.63;3.33;;;;;;;;;;5045079;28;20060;-61
2023/06/21 07:16:54;;;;;;;2.35;2.15;;;;;;;;;;5044768;28;20076;-61
2023/06/21 07:19:20;;;;;;;2.00;1.90;;;;;;;;;;5045392;28;20055;-62
2023/06/21 07:21:46;;;;;;;2.97;2.78;;;;;;;;;;5045085;28;20041;-61
2023/06/21 07:24:12;;;;;;;3.80;3.40;;;;;;;;;;5045895;28;20068;-61
2023/06/21 07:26:41;;;;;;;3.90;3.60;;;;;;;;;;5045589;28;20044;-61
2023/06/21 07:29:07;;;;;;;3.40;2.67;;;;;;;;;;5044363;28;20140;-61
2023/06/21 07:31:33;;;;;;;3.25;2.88;;;;;;;;;;5045434;28;20600;-61
2023/06/21 07:34:00;;;;;;;2.08;1.88;;;;;;;;;;5045540;28;20049;-61
2023/06/21 07:36:27;;;;;;;2.33;2.13;;;;;;;;;;5026633;28;20107;-62
2023/06/21 07:38:53;;;;;;;2.38;2.17;;;;;;;;;;5045411;28;20037;-62
2023/06/21 07:41:19;;;;;;;2.28;2.15;;;;;;;;;;5044931;28;20045;-62
2023/06/21 07:43:45;;;;;;;1.52;1.42;;;;;;;;;;5044478;28;20064;-62
2023/06/21 07:46:11;;;;;;;2.00;1.40;;;;;;;;;;5045916;28;20048;-62
2023/06/21 07:48:38;;;;;;;1.55;1.45;;;;;;;;;;5044843;28;20129;-62
2023/06/21 07:51:04;;;;;;;2.75;2.55;;;;;;;;;;5044445;28;20057;-62
2023/06/21 07:53:31;;;;;;;1.85;1.75;;;;;;;;;;5044546;28;20051;-61
2023/06/21 07:55:58;;;;;;;3.20;2.92;;;;;;;;;;5044888;28;20098;-61
2023/06/21 07:58:24;;;;;;;2.78;2.20;;;;;;;;;;5043811;28;20083;-61
2023/06/21 08:00:50;;;;;;;2.22;2.03;;;;;;;;;;5044822;28;20080;-61
2023/06/21 08:03:16;;;;;;;2.22;1.60;;;;;;;;;;5044369;28;20575;-61
2023/06/21 08:05:42;;;;;;;1.40;1.30;;;;;;;;;;5044416;28;20044;-61
2023/06/21 08:08:08;;;;;;;6.30;2.30;;;;;;;;;;5044571;28;20056;-61
2023/06/21 08:10:34;;;;;;;2.58;2.38;;;;;;;;;;5044267;28;20053;-61
2023/06/21 08:13:00;;;;;;;4.47;3.50;;;;;;;;;;5043811;28;20102;-61
2023/06/21 08:15:26;;;;;;;3.55;3.10;;;;;;;;;;5044410;28;20256;-61
2023/06/21 08:17:52;;;;;;;3.38;3.08;;;;;;;;;;5044676;28;20052;-61
2023/06/21 08:20:19;;;;;;;3.47;3.17;;;;;;;;;;5059030;28;20041;-61
2023/06/21 08:22:45;;;;;;;4.43;3.92;;;;;;;;;;5044297;28;20041;-61
2023/06/21 08:25:11;;;;;;;4.60;3.58;;;;;;;;;;5043445;28;20075;-61
2023/06/21 08:27:37;;;;;;;2.90;2.70;;;;;;;;;;5044439;28;20178;-63
2023/06/21 08:30:03;;;;;;;1.50;1.40;;;;;;;;;;5044073;28;20211;-62
2023/06/21 08:32:29;;;;;;;1.90;1.70;;;;;;;;;;5043264;28;20045;-62
2023/06/21 08:34:55;;;;;;;3.53;2.88;;;;;;;;;;5044261;28;20048;-62
2023/06/21 08:37:25;;;;;;;2.28;2.08;;;;;;;;;;5043916;28;20375;-62
2023/06/21 08:39:52;;;;;;;3.15;2.85;;;;;;;;;;5043349;28;20056;-62
2023/06/21 08:42:23;;;;;;;2.95;2.55;;;;;;;;;;5043626;28;20106;-62
2023/06/21 08:44:49;;;;;;;2.88;2.67;;;;;;;;;;5044220;28;20877;-62
2023/06/21 08:47:16;;;;;;;2.03;1.92;;;;;;;;;;5043200;28;20044;-62
2023/06/21 08:49:42;;;;;;;2.20;2.00;;;;;;;;;;5044348;28;20435;-62
2023/06/21 08:52:10;;;;;;;3.75;3.45;;;;;;;;;;5043597;28;20036;-63
2023/06/21 08:54:39;;;;;;;3.45;3.15;;;;;;;;;;5042945;28;20547;-63
2023/06/21 08:57:09;;;;;;;4.72;2.63;;;;;;;;;;5043836;28;20036;-63
2023/06/21 08:59:39;;;;;;;2.65;2.17;;;;;;;;;;5044086;28;20094;-63
2023/06/21 09:02:10;;;;;;;1.40;1.30;;;;;;;;;;5043484;28;20045;-63
2023/06/21 09:04:48;;;;;;;2.60;2.00;;;;;;;;;;5043732;28;20476;-62
2023/06/21 09:07:15;;;;;;;2.10;1.90;;;;;;;;;;5043150;28;20033;-63
2023/06/21 09:09:42;;;;;;;2.10;1.58;;;;;;;;;;5044681;28;20145;-63
2023/06/21 09:12:09;;;;;;;1.80;1.70;;;;;;;;;;5043171;28;20142;-63
2023/06/21 09:14:35;;;;;;;2.88;2.10;;;;;;;;;;5042910;28;20547;-63
2023/06/21 09:17:01;;;;;;;1.80;1.70;;;;;;;;;;5043498;28;20050;-63
2023/06/21 09:19:28;;;;;;;2.95;2.47;;;;;;;;;;5042983;28;20045;-63
2023/06/21 09:21:57;;;;;;;2.22;1.85;;;;;;;;;;5042601;28;20443;-63
2023/06/21 09:24:23;;;;;;;1.48;1.38;;;;;;;;;;5042968;28;20047;-63
2023/06/21 09:26:49;;;;;;;0.95;0.95;;;;;;;;;;5043177;28;20049;-63
2023/06/21 09:29:16;;;;;;;1.33;1.23;;;;;;;;;;5042414;28;20037;-63
2023/06/21 09:31:42;;;;;;;5.05;1.67;;;;;;;;;;5043443;28;20037;-63
2023/06/21 09:34:08;;;;;;;2.35;2.13;;;;;;;;;;5042921;28;20045;-63
2023/06/21 09:36:34;;;;;;;2.33;1.95;;;;;;;;;;5042182;28;20059;-63
2023/06/21 09:39:08;;;;;;;2.22;2.00;;;;;;;;;;5043264;28;20080;-63
2023/06/21 09:41:34;;;;;;;2.65;2.45;;;;;;;;;;5043408;28;20047;-63
2023/06/21 09:44:00;;;;;;;3.17;2.88;;;;;;;;;;5043088;28;20500;-63
2023/06/21 09:46:26;;;;;;;2.88;2.58;;;;;;;;;;5043013;28;20068;-63
2023/06/21 09:48:52;;;;;;;3.03;2.58;;;;;;;;;;5043136;28;20341;-63
2023/06/21 09:51:22;;;;;;;2.50;2.30;;;;;;;;;;5041960;28;20549;-63
2023/06/21 09:53:50;;;;;;;2.65;2.45;;;;;;;;;;5043103;28;20033;-63
2023/06/21 09:56:17;;;;;;;2.00;1.77;;;;;;;;;;5042826;28;20041;-63
2023/06/21 09:58:44;;;;;;;1.58;1.40;;;;;;;;;;5043115;28;20055;-63
2023/06/21 10:01:14;;;;;;;1.67;1.58;;;;;;;;;;5043176;28;20124;-63
2023/06/21 10:03:43;;;;;;;2.72;2.53;;;;;;;;;;5042853;28;20037;-63
2023/06/21 10:06:14;;;;;;;3.15;2.88;;;;;;;;;;5043184;28;20120;-63
2023/06/21 10:08:40;;;;;;;3.13;1.90;;;;;;;;;;5043179;28;20130;-63
2023/06/21 10:11:06;;;;;;;3.67;2.53;;;;;;;;;;5042050;28;20065;-63
2023/06/21 10:13:33;;;;;;;1.75;1.50;;;;;;;;;;5042939;28;20130;-63
2023/06/21 10:16:00;;;;;;;2.85;2.65;;;;;;;;;;5042868;28;20124;-63
2023/06/21 10:18:26;;;;;;;3.08;2.38;;;;;;;;;;5041791;28;20037;-63
2023/06/21 10:21:02;;;;;;;1.95;1.85;;;;;;;;;;5042651;28;20048;-63
2023/06/21 10:23:31;;;;;;;5.05;2.20;;;;;;;;;;5042424;28;20592;-63
2023/06/21 10:26:00;;;;;;;1.35;1.25;;;;;;;;;;5041961;28;20045;-63
2023/06/21 10:28:28;;;;;;;1.63;1.52;;;;;;;;;;5042261;28;20043;-63
2023/06/21 10:30:58;;;;;;;2.03;1.92;;;;;;;;;;5042610;28;20120;-63
2023/06/21 10:33:29;;;;;;;0.90;0.90;;;;;;;;;;5041573;28;20301;-63
2023/06/21 10:35:57;;;;;;;1.45;1.27;;;;;;;;;;5042766;28;20522;-63
2023/06/21 10:38:32;;;;;;;1.90;1.80;;;;;;;;;;5042873;28;20051;-63
2023/06/21 10:40:58;;;;;;;1.10;1.00;;;;;;;;;;5041770;28;20454;-63
2023/06/21 10:43:24;;;;;;;1.33;1.23;;;;;;;;;;5042392;28;20092;-63
2023/06/21 10:45:51;;;;;;;0.93;0.88;;;;;;;;;;5041676;28;20098;-63
2023/06/21 10:48:17;;;;;;;0.85;0.85;;;;;;;;;;5043669;28;20121;-63
2023/06/21 10:50:44;;;;;;;1.83;1.08;;;;;;;;;;5046887;28;20392;-63
2023/06/21 10:53:11;;;;;;;1.23;1.13;;;;;;;;;;5045834;28;20052;-63
2023/06/21 10:55:39;;;;;;;1.13;0.98;;;;;;;;;;5046533;28;20063;-63
2023/06/21 10:58:06;;;;;;;0.95;0.95;;;;;;;;;;5046196;28;20049;-63
2023/06/21 11:00:32;;;;;;;0.85;0.80;;;;;;;;;;5045356;28;20060;-63
2023/06/21 11:02:58;;;;;;;1.10;0.80;;;;;;;;;;5046136;28;20064;-63
2023/06/21 11:05:25;;;;;;;1.42;0.93;;;;;;;;;;5045724;28;20045;-63
2023/06/21 11:08:01;;;;;;;1.73;1.08;;;;;;;;;;5044938;28;20623;-63
2023/06/21 11:10:39;;;;;;;1.38;1.27;;;;;;;;;;5045395;28;20114;-63
2023/06/21 11:13:05;;;;;;;1.70;1.10;;;;;;;;;;5045926;28;20044;-63
2023/06/21 11:15:32;;;;;;;2.22;1.27;;;;;;;;;;5044722;28;20400;-63
2023/06/21 11:18:07;;;;;;;1.15;0.90;;;;;;;;;;5045760;28;20040;-63
2023/06/21 11:20:52;;;;;;;1.45;0.85;;;;;;;;;;5045542;28;20052;-63
2023/06/21 11:23:22;;;;;;;1.10;1.00;;;;;;;;;;5045290;28;20082;-63
2023/06/21 11:25:58;;;;;;;0.90;0.88;;;;;;;;;;5045395;28;20056;-63
2023/06/21 11:28:26;;;;;;;1.15;1.05;;;;;;;;;;5044667;28;20399;-63
2023/06/21 11:31:02;;;;;;;1.23;1.15;;;;;;;;;;5045226;28;20108;-63
2023/06/21 11:33:29;;;;;;;1.50;1.40;;;;;;;;;;5045083;28;20512;-63
2023/06/21 11:36:02;;;;;;;1.92;1.80;;;;;;;;;;5044785;28;20037;-63
2023/06/21 11:38:28;;;;;;;3.17;1.60;;;;;;;;;;5045177;28;20048;-63
2023/06/21 11:40:54;;;;;;;1.40;1.30;;;;;;;;;;5045472;28;20083;-63
2023/06/21 11:43:21;;;;;;;1.52;1.42;;;;;;;;;;5044228;28;20080;-63
2023/06/21 11:45:57;;;;;;;1.88;1.23;;;;;;;;;;5045216;28;20087;-63
2023/06/21 11:48:27;;;;;;;1.65;1.55;;;;;;;;;;5045047;28;20056;-63
2023/06/21 11:50:55;;;;;;;1.25;1.17;;;;;;;;;;5044268;28;20041;-63
2023/06/21 11:53:26;;;;;;;1.10;0.93;;;;;;;;;;5044750;28;20090;-63
2023/06/21 11:55:56;;;;;;;1.08;0.98;;;;;;;;;;5044843;28;20116;-63
2023/06/21 11:58:23;;;;;;;1.10;1.00;;;;;;;;;;5027144;28;20053;-63
2023/06/21 12:00:49;;;;;;;2.08;0.90;;;;;;;;;;5043597;28;20392;-63
2023/06/21 12:03:15;;;;;;;1.00;1.00;;;;;;;;;;5044285;28;20328;-63
2023/06/21 12:05:48;;;;;;;1.23;1.13;;;;;;;;;;5045547;28;20037;-63
2023/06/21 12:08:15;;;;;;;1.00;0.80;;;;;;;;;;5044918;28;20036;-63
2023/06/21 12:10:41;;;;;;;1.20;1.05;;;;;;;;;;5044681;28;20053;-63
2023/06/21 12:13:07;;;;;;;0.93;0.88;;;;;;;;;;5044563;28;20052;-63
2023/06/21 12:15:33;;;;;;;1.33;1.23;;;;;;;;;;5044735;28;20055;-63
2023/06/21 12:17:59;;;;;;;1.73;1.63;;;;;;;;;;5043975;28;20055;-63
2023/06/21 12:20:25;;;;;;;1.67;1.58;;;;;;;;;;5044033;28;20036;-63
2023/06/21 12:22:51;;;;;;;1.50;1.40;;;;;;;;;;5044231;28;20043;-63
2023/06/21 12:25:18;;;;;;;1.25;1.15;;;;;;;;;;5043520;28;20120;-63
2023/06/21 12:27:55;;;;;;;1.10;1.00;;;;;;;;;;5044858;28;20120;-63
2023/06/21 12:30:21;;;;;;;1.30;1.20;;;;;;;;;;5044167;28;20595;-63
2023/06/21 12:32:49;;;;;;;1.13;1.02;;;;;;;;;;5043643;28;20128;-63
2023/06/21 12:35:17;;;;;;;1.30;1.20;;;;;;;;;;5044351;28;20095;-63
2023/06/21 12:37:46;;;;;;;1.30;1.20;;;;;;;;;;5044648;28;20048;-63
2023/06/21 12:40:16;;;;;;;1.17;1.08;;;;;;;;;;5043937;28;20053;-63
2023/06/21 12:42:44;;;;;;;1.00;1.00;;;;;;;;;;5026818;28;20527;-63
2023/06/21 12:45:12;;;;;;;0.90;0.90;;;;;;;;;;5058970;28;20047;-63
2023/06/21 12:47:38;;;;;;;0.93;0.90;;;;;;;;;;5044370;28;20348;-63
2023/06/21 12:50:05;;;;;;;1.35;1.25;;;;;;;;;;5044182;28;20060;-63
2023/06/21 12:52:32;;;;;;;1.25;1.15;;;;;;;;;;5043345;28;20098;-63
2023/06/21 12:54:58;;;;;;;1.33;1.23;;;;;;;;;;5043880;28;20524;-63
2023/06/21 12:57:28;;;;;;;2.10;2.00;;;;;;;;;;5043579;28;20037;-63
2023/06/21 12:59:54;;;;;;;1.50;1.40;;;;;;;;;;5043386;28;20128;-63
2023/06/21 13:02:26;;;;;;;1.95;1.20;;;;;;;;;;5043625;28;20588;-63
2023/06/21 13:04:53;;;;;;;1.17;1.08;;;;;;;;;;5043669;28;20443;-63
2023/06/21 13:07:19;;;;;;;1.60;1.40;;;;;;;;;;5042917;28;20102;-63
2023/06/21 13:09:45;;;;;;;2.97;2.20;;;;;;;;;;5043789;28;20037;-63
2023/06/21 13:12:11;;;;;;;1.67;1.58;;;;;;;;;;5043310;28;20053;-63
2023/06/21 13:14:37;;;;;;;2.47;2.28;;;;;;;;;;5042875;28;20081;-63
2023/06/21 13:17:03;;;;;;;1.48;1.38;;;;;;;;;;5043402;28;20470;-63
2023/06/21 13:19:29;;;;;;;1.10;1.00;;;;;;;;;;5042982;28;20509;-63
2023/06/21 13:21:55;;;;;;;1.40;1.30;;;;;;;;;;5042761;28;20296;-63
2023/06/21 13:24:21;;;;;;;3.20;2.90;;;;;;;;;;5043192;28;20052;-63
2023/06/21 13:26:47;;;;;;;2.33;2.00;;;;;;;;;;5043317;28;20067;-63
2023/06/21 13:29:13;;;;;;;1.60;1.30;;;;;;;;;;5042704;28;20504;-63
2023/06/21 13:31:39;;;;;;;2.40;1.45;;;;;;;;;;5043020;28;20091;-64
2023/06/21 13:34:05;;;;;;;2.67;2.45;;;;;;;;;;5043271;28;20808;-63
2023/06/21 13:36:31;;;;;;;2.53;2.33;;;;;;;;;;5042270;28;20077;-63
2023/06/21 13:38:57;;;;;;;2.08;1.73;;;;;;;;;;5043310;28;20503;-63
2023/06/21 13:41:23;;;;;;;1.40;1.30;;;;;;;;;;5042773;28;20152;-63
2023/06/21 13:43:49;;;;;;;1.30;1.20;;;;;;;;;;5042527;28;20048;-63
2023/06/21 13:46:15;;;;;;;2.17;1.92;;;;;;;;;;5043509;28;20120;-63
2023/06/21 13:48:41;;;;;;;2.60;2.40;;;;;;;;;;5043177;28;20540;-63
2023/06/21 13:51:07;;;;;;;4.93;2.25;;;;;;;;;;5043429;28;20124;-63
2023/06/21 13:53:33;;;;;;;3.38;2.30;;;;;;;;;;5043139;28;20052;-63
2023/06/21 13:55:59;;;;;;;3.65;2.45;;;;;;;;;;5042678;28;20037;-63
2023/06/21 13:58:26;;;;;;;1.88;1.77;;;;;;;;;;5042612;28;20062;-63
2023/06/21 14:00:52;;;;;;;2.28;2.08;;;;;;;;;;5042730;28;20519;-63
2023/06/21 14:03:18;;;;;;;6.50;3.63;;;;;;;;;;5042096;28;20040;-63
2023/06/21 14:05:44;;;;;;;2.83;2.20;;;;;;;;;;5043460;28;20657;-63
2023/06/21 14:08:10;;;;;;;1.90;1.70;;;;;;;;;;5042806;28;20049;-63
2023/06/21 14:10:36;;;;;;;2.40;2.17;;;;;;;;;;5041776;28;20281;-63
2023/06/21 14:13:02;;;;;;;2.50;2.30;;;;;;;;;;5042753;28;20072;-63
2023/06/21 14:15:28;;;;;;;2.30;2.10;;;;;;;;;;5042377;28;20083;-62
2023/06/21 14:17:55;;;;;;;4.60;3.97;;;;;;;;;;5042066;28;20052;-62
2023/06/21 14:20:22;;;;;;;2.88;2.35;;;;;;;;;;5042994;28;20136;-63
2023/06/21 14:22:48;;;;;;;3.33;3.03;;;;;;;;;;5043830;28;20516;-63
2023/06/21 14:25:14;;;;;;;4.82;3.53;;;;;;;;;;5046592;28;20106;-63
2023/06/21 14:27:40;;;;;;;2.47;2.28;;;;;;;;;;5046537;28;20044;-63
2023/06/21 14:30:06;;;;;;;3.70;2.95;;;;;;;;;;5046831;28;20619;-63
2023/06/21 14:32:33;;;;;;;2.85;2.65;;;;;;;;;;5027750;28;20047;-63
2023/06/21 14:34:59;;;;;;;3.95;2.70;;;;;;;;;;5046549;28;20040;-63
2023/06/21 14:37:25;;;;;;;1.90;1.70;;;;;;;;;;5046034;28;20424;-63
2023/06/21 14:39:52;;;;;;;1.92;1.83;;;;;;;;;;5045515;28;20489;-63
2023/06/21 14:42:18;;;;;;;4.82;3.50;;;;;;;;;;5046173;28;20036;-63